Winterton, United Kingdom
Current Conditions -  °F | °C
As of 10:20 AM on Monday 22 Dec 2014 (Local Time) from EGNJ Reporting Station
Broken Clouds Broken Clouds  
Wind Chill: 55°   Ceiling: 3000
Heat Index: 55°   Visibility: 6mi
Dew Point: 50°   Wind: 29mph
Humidity: 82%   Direction: 230°SW
Pressure: 29.8"   Gusts: NA
Location:  53.65°N, 0.6°W
Report Text: EGNJ 221020Z 23025KT 9999 BKN030 13/10 Q1009
Loading
Personal Weather Stations






























Interactive Weather Map New forecast layout! Learn more

10-Day Weather Forecast

Advertisements
Track Severe Weather on mobile